Terminal Aerodrome Forecast
Issued by NWS

Home | Current Version | Previous Version | Graphics & Text | Print | Product List | Glossary On
Versions: 1 2 3 4 5 6 7 8 9 10 11 12 13 14 15 16 17 18 19 20 21
000
FTUS43 KBIS 292320
TAFDIK
TAF
KDIK 292320Z 3000/3024 31024G32KT 1/2SM -SN BLSN OVC010
     FM300100 31020G29KT 2SM -SN BLSN OVC008
     FM301200 31015G22KT 3SM BLSN VCSH BKN010
     FM301800 31014KT P6SM OVC010=

USA.gov is the U.S. government's official web portal to all federal, state and local government web resources and services.